Topeka/Forbes Field, Kansas
Current Conditions -  °F | °C
As of 3:17 AM on Friday 24 Oct 2014 (Local Time) from KFOE Reporting Station
Haze Haze  
Wind Chill: 58°   Ceiling: 200
Heat Index: 58°   Visibility: 1.5mi
Dew Point: 57°   Wind: 12mph
Humidity: 97%   Direction: 200°SSW
Pressure: 30.06"   Gusts: NA
Location:  38.95°N, 95.66°W
Report Text: KFOE 240817Z AUTO 20010KT 1 1/2SM BR OVC002 14/14 A3006 RMK AO2 T01440139
Loading
Personal Weather Stations






























Interactive Weather Map
Tropical Storm Tracking
New forecast layout! Learn more

10-Day Weather Forecast

Advertisements
Track Severe Weather on mobile